Time;durP1;ratioP1;P1;durP2;ratioP2;P2;SDS_P1;SDS_P2;PMS_P1;PMS_P2;Temp;Humidity;BMP_temperature;BMP_pressure;BME280_temperature;BME280_humidity;BME280_pressure;Samples;Min_cycle;Max_cycle;Signal;HPM_P1;HPM_P2
2024/01/21 00:01:29;;;;;;;;;41.00;35.00;;;;;-2.30;96.08;100959.97;6305568;20;2870233;-49
2024/01/21 00:03:58;;;;;;;;;60.00;45.00;;;;;-2.27;95.66;100945.97;6273694;20;2877401;-44
2024/01/21 00:06:27;;;;;;;;;64.00;49.00;;;;;-2.48;96.87;100938.72;6276202;20;2872395;-46
2024/01/21 00:08:55;;;;;;;;;73.00;49.00;;;;;-2.76;97.42;100942.78;6275090;20;2754478;-45
2024/01/21 00:11:23;;;;;;;;;40.00;39.50;;;;;-2.50;97.14;100929.94;6303129;20;2863822;-45
2024/01/21 00:13:51;;;;;;;;;50.00;32.00;;;;;-2.43;97.02;100934.41;6269921;20;2502374;-50
2024/01/21 00:16:21;;;;;;;;;66.33;45.00;;;;;-2.44;96.54;100940.53;6275355;20;2891920;-47
2024/01/21 00:18:50;;;;;;;;;53.00;45.00;;;;;-2.19;95.94;100944.31;6306814;20;2855578;-46
2024/01/21 00:21:18;;;;;;;;;46.33;35.33;;;;;-2.36;95.71;100938.88;6274926;20;3607583;-46
2024/01/21 00:23:47;;;;;;;;;43.00;33.50;;;;;-2.34;96.10;100937.16;6274427;20;2856598;-47
2024/01/21 00:26:15;;;;;;;;;50.00;42.00;;;;;-2.28;96.06;100938.97;6272475;20;2502387;-49
2024/01/21 00:28:43;;;;;;;;;32.00;27.00;;;;;-2.16;96.22;100938.19;6274314;20;2848307;-50
2024/01/21 00:31:12;;;;;;;;;41.67;31.00;;;;;-2.21;95.54;100940.81;6275980;20;3602471;-49
2024/01/21 00:33:40;;;;;;;;;50.00;43.00;;;;;-1.98;94.29;100941.00;6270966;20;2502348;-49
2024/01/21 00:36:11;;;;;;;;;43.50;38.50;;;;;-2.05;94.08;100945.34;6274292;20;2852384;-48
2024/01/21 00:38:41;;;;;;;;;38.67;36.33;;;;;-2.12;94.99;100951.41;6273238;20;3598140;-50
2024/01/21 00:41:15;;;;;;;;;51.50;42.00;;;;;-2.07;94.20;100957.59;6274513;20;2867196;-47
2024/01/21 00:43:44;;;;;;;;;48.67;35.33;;;;;-1.99;94.22;100961.19;6271975;20;3608728;-46
2024/01/21 00:46:12;;;;;;;;;45.50;39.00;;;;;-1.94;93.34;100963.00;6272440;20;2502369;-46
2024/01/21 00:48:41;;;;;;;;;54.50;42.50;;;;;-1.80;93.52;100967.50;6274762;20;2873230;-50
2024/01/21 00:51:10;;;;;;;;;55.50;37.00;;;;;-2.12;94.02;100953.16;6274266;20;2880492;-51
2024/01/21 00:53:39;;;;;;;;;39.00;37.00;;;;;-2.20;93.97;100947.81;6273669;20;2868018;-55
2024/01/21 00:56:07;;;;;;;;;45.50;37.00;;;;;-2.24;94.29;100948.63;6274049;20;2875404;-49
2024/01/21 00:58:37;;;;;;;;;48.33;36.33;;;;;-2.15;94.19;100951.38;6272976;20;2867011;-45
2024/01/21 01:01:06;;;;;;;;;51.00;40.00;;;;;-2.29;94.41;100951.25;6305427;20;2881517;-49
2024/01/21 01:03:35;;;;;;;;;63.00;46.00;;;;;-2.58;95.77;100952.63;6269194;20;2763824;-44
2024/01/21 01:06:05;;;;;;;;;52.00;42.50;;;;;-2.59;97.08;100959.63;6306724;20;2870086;-48
2024/01/21 01:08:33;;;;;;;;;72.50;57.00;;;;;-3.15;97.48;100960.63;6273170;20;2502361;-49
2024/01/21 01:11:01;;;;;;;;;40.50;32.00;;;;;-3.23;98.72;100966.66;6280525;20;2873223;-45
2024/01/21 01:13:29;;;;;;;;;53.00;45.00;;;;;-3.12;98.94;100970.31;6271983;20;2502336;-50
2024/01/21 01:15:59;;;;;;;;;48.50;38.50;;;;;-3.58;99.76;100967.84;6273946;20;2502397;-46
2024/01/21 01:18:29;;;;;;;;;45.67;34.00;;;;;-2.98;99.51;100989.75;6278317;20;2882582;-47
2024/01/21 01:20:59;;;;;;;;;63.00;45.33;;;;;-3.19;100.00;100994.69;6310876;20;3640934;-48
2024/01/21 01:23:30;;;;;;;;;41.00;30.50;;;;;-2.80;98.50;100996.16;6313381;20;2872156;-45
2024/01/21 01:25:59;;;;;;;;;45.50;33.00;;;;;-2.92;98.28;101000.38;6276215;20;2884681;-45
2024/01/21 01:28:27;;;;;;;;;62.33;45.67;;;;;-2.80;96.86;100993.53;6273898;20;3628486;-46
2024/01/21 01:30:55;;;;;;;;;47.00;38.00;;;;;-2.92;96.97;100989.00;6303041;20;2502363;-48
2024/01/21 01:33:24;;;;;;;;;57.50;46.00;;;;;-2.99;97.09;100988.00;6275154;20;2864885;-45
2024/01/21 01:35:53;;;;;;;;;67.00;47.00;;;;;-3.00;97.71;100982.72;6276189;20;2869015;-46
2024/01/21 01:38:21;;;;;;;;;62.00;48.50;;;;;-2.97;98.42;100986.31;6275119;20;2866055;-48
2024/01/21 01:40:49;;;;;;;;;68.00;48.00;;;;;-3.05;98.32;100995.81;6274180;20;2500402;-50
2024/01/21 01:43:18;;;;;;;;;63.50;50.00;;;;;-3.07;98.09;100994.91;6274293;20;2859699;-46
2024/01/21 01:45:47;;;;;;;;;59.00;49.00;;;;;-3.38;98.99;100999.66;6277964;20;2839925;-47
2024/01/21 01:48:16;;;;;;;;;65.00;45.50;;;;;-3.60;99.51;101002.81;6275049;20;2875274;-45
2024/01/21 01:50:45;;;;;;;;;43.00;34.00;;;;;-3.64;100.00;100995.72;6272165;20;2862773;-49
2024/01/21 01:53:13;;;;;;;;;46.00;40.00;;;;;-3.61;100.00;100998.41;6277841;20;2861854;-45
2024/01/21 01:55:44;;;;;;;;;57.50;38.00;;;;;-3.73;100.00;101000.84;6273929;20;2882603;-48
2024/01/21 01:58:16;;;;;;;;;40.67;26.67;;;;;-4.12;100.00;100999.22;6276862;20;3605476;-45
2024/01/21 02:00:47;;;;;;;;;54.50;42.50;;;;;-4.44;100.00;101009.97;6269973;20;2502362;-45
2024/01/21 02:03:16;;;;;;;;;55.50;41.00;;;;;-4.23;100.00;101005.16;6277586;20;2883602;-47
2024/01/21 02:05:46;;;;;;;;;50.00;37.00;;;;;-3.67;100.00;101011.41;6275690;20;2867950;-46
2024/01/21 02:08:15;;;;;;;;;44.00;35.00;;;;;-3.99;100.00;101004.72;6275559;20;2879450;-45
2024/01/21 02:10:44;;;;;;;;;47.00;42.50;;;;;-3.41;100.00;100999.63;6275666;20;2882659;-44
2024/01/21 02:13:13;;;;;;;;;55.00;32.00;;;;;-3.80;100.00;100999.81;6274367;20;2879828;-45
2024/01/21 02:15:43;;;;;;;;;53.33;44.33;;;;;-3.94;100.00;100994.34;6272365;20;2879508;-46
2024/01/21 02:18:12;;;;;;;;;48.50;38.00;;;;;-3.50;100.00;100990.69;6308787;20;2874332;-44
2024/01/21 02:20:41;;;;;;;;;63.50;49.00;;;;;-3.40;100.00;100990.88;6275406;20;2868139;-45
2024/01/21 02:23:10;;;;;;;;;58.00;48.00;;;;;-3.58;100.00;100985.31;6272981;20;2502387;-45
2024/01/21 02:25:39;;;;;;;;;63.00;50.00;;;;;-3.49;100.00;100990.75;6278407;20;2845083;-44
2024/01/21 02:28:08;;;;;;;;;66.00;48.00;;;;;-4.04;100.00;100992.38;6277448;20;2875345;-47
2024/01/21 02:30:40;;;;;;;;;56.00;45.50;;;;;-4.16;100.00;100997.41;6272327;20;2502473;-47
2024/01/21 02:33:09;;;;;;;;;53.33;41.33;;;;;-4.03;100.00;101008.16;6273580;20;2889990;-46
2024/01/21 02:35:37;;;;;;;;;55.00;39.00;;;;;-3.77;100.00;101013.88;6303476;20;2502500;-44
2024/01/21 02:38:06;;;;;;;;;53.50;40.00;;;;;-4.65;100.00;101013.03;6302010;20;2881661;-45
2024/01/21 02:40:36;;;;;;;;;61.00;45.00;;;;;-5.05;100.00;101009.53;6273334;20;2605549;-45
2024/01/21 02:43:07;;;;;;;;;48.50;39.00;;;;;-5.36;100.00;101006.16;6307068;20;2869035;-44
2024/01/21 02:45:36;;;;;;;;;52.00;42.00;;;;;-4.88;100.00;101004.66;6277375;20;2881568;-44
2024/01/21 02:48:06;;;;;;;;;59.33;39.00;;;;;-5.05;100.00;101013.84;6275367;20;2889992;-45
2024/01/21 02:50:35;;;;;;;;;50.00;43.00;;;;;-4.84;100.00;101022.22;6307943;20;2873187;-44
2024/01/21 02:53:04;;;;;;;;;56.00;45.00;;;;;-4.76;100.00;101020.66;6269249;20;2877403;-44
2024/01/21 02:55:33;;;;;;;;;45.50;39.50;;;;;-4.80;100.00;101021.41;6272827;20;2869147;-44
2024/01/21 02:58:01;;;;;;;;;47.00;34.00;;;;;-4.22;100.00;101017.41;6274376;20;2885781;-46
2024/01/21 03:00:29;;;;;;;;;42.00;33.00;;;;;-4.54;100.00;101029.84;6272279;20;2877365;-47
2024/01/21 03:02:59;;;;;;;;;70.00;49.00;;;;;-4.83;100.00;101020.47;6265788;20;2868034;-46
2024/01/21 03:05:29;;;;;;;;;54.00;43.67;;;;;-4.87;100.00;101020.41;6275412;20;2885756;-44
2024/01/21 03:07:58;;;;;;;;;60.00;45.00;;;;;-5.08;100.00;101030.41;6305299;20;3653436;-45
2024/01/21 03:10:27;;;;;;;;;53.33;36.33;;;;;-5.22;100.00;101024.81;6301687;20;2891944;-44
2024/01/21 03:12:56;;;;;;;;;42.00;31.50;;;;;-4.70;100.00;101028.63;6306663;20;2877355;-47
2024/01/21 03:15:24;;;;;;;;;42.50;27.50;;;;;-4.18;100.00;101025.34;6270332;20;2868010;-45
2024/01/21 03:17:52;;;;;;;;;49.67;37.33;;;;;-4.23;100.00;101030.50;6269237;20;2883770;-45
2024/01/21 03:20:21;;;;;;;;;39.00;29.33;;;;;-4.09;100.00;101017.66;6306524;20;3611710;-45
2024/01/21 03:22:50;;;;;;;;;48.00;28.67;;;;;-3.90;100.00;101026.75;6271585;20;2880522;-44
2024/01/21 03:25:19;;;;;;;;;47.50;33.00;;;;;-3.97;99.54;101029.25;6305707;20;2881669;-45
2024/01/21 03:27:47;;;;;;;;;33.67;25.67;;;;;-3.86;99.85;101021.59;6273583;20;3589831;-48
2024/01/21 03:30:17;;;;;;;;;36.00;31.00;;;;;-4.16;100.00;101031.47;6271915;20;3604451;-44
2024/01/21 03:32:45;;;;;;;;;33.50;28.00;;;;;-4.30;100.00;101036.47;6271107;20;2856571;-45
2024/01/21 03:35:13;;;;;;;;;49.50;38.00;;;;;-4.56;100.00;101046.38;6271798;20;2510841;-47
2024/01/21 03:37:42;;;;;;;;;43.00;35.00;;;;;-4.65;100.00;101042.72;6273357;20;2879601;-45
2024/01/21 03:40:11;;;;;;;;;38.00;30.00;;;;;-4.46;100.00;101049.22;6273995;20;2871165;-46
2024/01/21 03:42:40;;;;;;;;;46.00;33.00;;;;;-4.48;100.00;101056.16;6274696;20;2883073;-46
2024/01/21 03:45:09;;;;;;;;;49.00;34.00;;;;;-4.59;100.00;101057.69;6272651;20;2884737;-44
2024/01/21 03:47:37;;;;;;;;;48.00;33.00;;;;;-5.30;100.00;101048.19;6270978;20;2502484;-48
2024/01/21 03:50:06;;;;;;;;;50.00;37.00;;;;;-5.44;100.00;101048.72;6266828;20;2502401;-45
2024/01/21 03:52:35;;;;;;;;;68.40;49.80;;;;;-6.25;100.00;101047.44;6272292;20;3631548;-44
2024/01/21 03:55:05;;;;;;;;;85.33;62.17;;;;;-5.40;100.00;101056.66;6270783;20;3659748;-47
2024/01/21 03:57:34;;;;;;;;;78.00;53.80;;;;;-5.23;100.00;101048.34;6303924;20;3649256;-45
2024/01/21 04:00:08;;;;;;;;;69.50;55.00;;;;;-5.92;100.00;101057.00;6273731;20;2877445;-45
2024/01/21 04:02:36;;;;;;;;;61.50;45.50;;;;;-5.85;100.00;101048.50;6268877;20;2502504;-46
2024/01/21 04:05:06;;;;;;;;;45.67;34.33;;;;;-5.47;100.00;101056.47;6272824;20;3626430;-45
2024/01/21 04:07:35;;;;;;;;;35.50;29.00;;;;;-5.21;100.00;101052.78;6270785;20;2504567;-47
2024/01/21 04:10:04;;;;;;;;;51.00;39.00;;;;;-4.88;100.00;101060.53;6269583;20;2872314;-45
2024/01/21 04:12:32;;;;;;;;;65.50;51.00;;;;;-5.10;100.00;101059.16;6268157;20;2510768;-44
2024/01/21 04:14:59;;;;;;;;;64.00;45.00;;;;;-5.05;100.00;101063.59;6269379;20;2492029;-46
2024/01/21 04:17:30;;;;;;;;;59.33;45.00;;;;;-4.90;100.00;101066.59;6273894;20;2883772;-45
2024/01/21 04:19:59;;;;;;;;;62.50;48.00;;;;;-5.26;100.00;101071.84;6303910;20;2858651;-44
2024/01/21 04:22:27;;;;;;;;;66.50;49.00;;;;;-5.29;100.00;101075.28;6270305;20;2510726;-45
2024/01/21 04:24:56;;;;;;;;;32.67;24.00;;;;;-4.60;100.00;101070.78;6271761;20;3594444;-44
2024/01/21 04:27:24;;;;;;;;;44.00;31.00;;;;;-4.29;100.00;101067.97;6272511;20;2879495;-44
2024/01/21 04:29:52;;;;;;;;;48.00;34.50;;;;;-4.17;100.00;101069.94;6272155;20;2881545;-45
2024/01/21 04:32:20;;;;;;;;;42.00;34.00;;;;;-4.31;100.00;101069.66;6272379;20;2753556;-47
2024/01/21 04:34:49;;;;;;;;;45.75;37.75;;;;;-4.18;100.00;101068.19;6296957;20;3621159;-45
2024/01/21 04:37:17;;;;;;;;;46.00;39.00;;;;;-4.06;99.21;101068.41;6299506;20;2502471;-44
2024/01/21 04:39:45;;;;;;;;;46.50;36.50;;;;;-4.20;99.68;101060.28;6271306;20;2502476;-44
2024/01/21 04:42:15;;;;;;;;;64.67;44.33;;;;;-4.63;99.16;101059.38;6270324;20;3646197;-45
2024/01/21 04:44:43;;;;;;;;;58.00;46.00;;;;;-4.74;100.00;101066.09;6302978;20;2866036;-45
2024/01/21 04:47:12;;;;;;;;;51.00;42.00;;;;;-5.28;100.00;101063.94;6275320;20;2866992;-45
2024/01/21 04:49:41;;;;;;;;;55.00;43.33;;;;;-5.17;100.00;101058.97;6269484;20;2878481;-44
2024/01/21 04:52:09;;;;;;;;;50.50;34.00;;;;;-5.21;100.00;101062.34;6298667;20;2502387;-46
2024/01/21 04:54:38;;;;;;;;;65.00;48.00;;;;;-5.47;100.00;101066.94;6269442;20;2877510;-44
2024/01/21 04:57:08;;;;;;;;;75.00;55.00;;;;;-5.22;100.00;101058.84;6303064;20;2892004;-45
2024/01/21 04:59:37;;;;;;;;;72.67;48.67;;;;;-6.08;100.00;101072.34;6303711;20;2896193;-46
2024/01/21 05:02:06;;;;;;;;;58.00;45.00;;;;;-5.94;100.00;101074.44;6299422;20;2886803;-45
2024/01/21 05:04:36;;;;;;;;;54.33;42.67;;;;;-5.14;100.00;101074.75;6269393;20;2889916;-44
2024/01/21 05:07:05;;;;;;;;;64.33;45.67;;;;;-7.29;100.00;101082.59;6302623;20;2882902;-46
2024/01/21 05:09:35;;;;;;;;;76.00;49.67;;;;;-6.65;100.00;101086.34;6301846;20;2898199;-50
2024/01/21 05:12:05;;;;;;;;;66.83;44.67;;;;;-6.34;100.00;101094.22;6301402;20;3653402;-47
2024/01/21 05:14:34;;;;;;;;;60.50;45.50;;;;;-6.73;100.00;101094.78;6301540;20;2873172;-46
2024/01/21 05:17:02;;;;;;;;;71.50;49.00;;;;;-6.81;100.00;101101.50;6266557;20;2508621;-49
2024/01/21 05:19:30;;;;;;;;;76.00;53.00;;;;;-6.16;100.00;101105.22;6271314;20;2885706;-47
2024/01/21 05:21:59;;;;;;;;;75.00;54.20;;;;;-6.52;100.00;101099.78;6269140;20;3639892;-48
2024/01/21 05:24:29;;;;;;;;;85.00;65.33;;;;;-6.60;100.00;101106.50;6268863;20;2903501;-48
2024/01/21 05:26:59;;;;;;;;;97.67;71.33;;;;;-6.32;100.00;101108.19;6303354;20;3682653;-50
2024/01/21 05:29:27;;;;;;;;;82.60;58.80;;;;;-5.86;100.00;101110.38;6300144;20;3645035;-47
2024/01/21 05:31:56;;;;;;;;;73.40;53.60;;;;;-6.03;100.00;101117.81;6272518;20;3636741;-46
2024/01/21 05:34:26;;;;;;;;;82.67;57.67;;;;;-5.77;100.00;101121.09;6267526;20;3656515;-50
2024/01/21 05:36:55;;;;;;;;;53.80;43.40;;;;;-5.42;100.00;101122.91;6298696;20;3610721;-49
2024/01/21 05:39:23;;;;;;;;;32.50;30.00;;;;;-5.42;100.00;101120.28;6271772;20;2851376;-48
2024/01/21 05:42:06;;;;;;;;;80.67;48.67;;;;;-5.78;100.00;101124.56;6270078;20;2892005;-47
2024/01/21 05:44:36;;;;;;;;;54.67;36.00;;;;;-6.02;100.00;101135.25;6301073;20;2889838;-47
2024/01/21 05:47:04;;;;;;;;;72.50;54.00;;;;;-5.82;100.00;101127.94;6299703;20;2495097;-48
2024/01/21 05:49:33;;;;;;;;;82.80;62.20;;;;;-5.77;100.00;101131.53;6270860;20;3633667;-50
2024/01/21 05:52:02;;;;;;;;;72.00;55.00;;;;;-5.44;100.00;101143.78;6273864;20;3637794;-47
2024/01/21 05:54:31;;;;;;;;;40.00;34.00;;;;;-5.36;100.00;101136.16;6269441;20;2849423;-48
2024/01/21 05:56:59;;;;;;;;;54.50;39.00;;;;;-5.52;100.00;101143.59;6275881;20;2891947;-51
2024/01/21 05:59:28;;;;;;;;;30.00;30.00;;;;;-5.21;100.00;101144.41;6273237;20;3595133;-49
2024/01/21 06:01:57;;;;;;;;;37.33;28.00;;;;;-4.95;100.00;101142.44;6272336;20;3605576;-52
2024/01/21 06:04:25;;;;;;;;;47.50;38.00;;;;;-5.02;100.00;101144.88;6272303;20;2865902;-47
2024/01/21 06:06:54;;;;;;;;;48.00;42.50;;;;;-5.17;100.00;101146.25;6276871;20;2882568;-50
2024/01/21 06:09:23;;;;;;;;;69.20;49.80;;;;;-5.05;100.00;101157.84;6276127;20;3632650;-50
2024/01/21 06:11:53;;;;;;;;;62.67;47.33;;;;;-5.11;100.00;101151.66;6277578;20;2892101;-50
2024/01/21 06:14:21;;;;;;;;;41.50;31.00;;;;;-5.27;100.00;101161.66;6303186;20;2502437;-51
2024/01/21 06:16:49;;;;;;;;;55.50;41.00;;;;;-5.21;100.00;101165.34;6271231;20;2502329;-49
2024/01/21 06:19:16;;;;;;;;;55.50;38.00;;;;;-5.47;100.00;101163.78;6272527;20;2887786;-48
2024/01/21 06:21:44;;;;;;;;;38.50;33.00;;;;;-5.30;100.00;101152.00;6277158;20;2867573;-51
2024/01/21 06:24:13;;;;;;;;;59.00;41.00;;;;;-5.26;100.00;101166.97;6269964;20;2502374;-53
2024/01/21 06:26:42;;;;;;;;;71.00;45.50;;;;;-5.24;100.00;101162.66;6275608;20;2708669;-49
2024/01/21 06:29:12;;;;;;;;;57.00;45.00;;;;;-5.00;100.00;101174.56;6306628;20;2882613;-50
2024/01/21 06:31:42;;;;;;;;;94.33;66.00;;;;;-5.20;100.00;101180.19;6271988;20;3662890;-50
2024/01/21 06:34:11;;;;;;;;;85.67;57.33;;;;;-5.11;100.00;101184.78;6306329;20;3656525;-48
2024/01/21 06:36:41;;;;;;;;;84.33;60.00;;;;;-5.09;100.00;101183.09;6300648;20;2899277;-50
2024/01/21 06:39:11;;;;;;;;;79.00;60.67;;;;;-4.77;100.00;101199.63;6308748;20;3646223;-48
2024/01/21 06:41:39;;;;;;;;;65.00;52.00;;;;;-5.01;100.00;101204.25;6304713;20;2499451;-50
2024/01/21 06:44:08;;;;;;;;;73.80;54.00;;;;;-5.57;100.00;101207.97;6271911;20;3633024;-47
2024/01/21 06:46:38;;;;;;;;;97.00;66.33;;;;;-4.91;100.00;101206.25;6277093;20;3671122;-48
2024/01/21 06:49:08;;;;;;;;;90.67;66.00;;;;;-5.49;100.00;101209.94;6305400;20;3668041;-51
2024/01/21 06:51:58;;;;;;;;;89.60;69.00;;;;;-5.82;100.00;101211.63;6305681;20;3632624;-47
2024/01/21 06:54:27;;;;;;;;;117.00;89.33;;;;;-5.57;100.00;101218.44;6271855;20;3697255;-49
2024/01/21 06:56:57;;;;;;;;;109.67;78.33;;;;;-5.87;100.00;101228.00;6273178;20;3682594;-52
2024/01/21 06:59:27;;;;;;;;;98.33;71.33;;;;;-6.42;100.00;101228.13;6272627;20;3660669;-48
2024/01/21 07:01:54;;;;;;;;;77.00;56.00;;;;;-6.66;100.00;101228.22;6302836;20;2502469;-50
2024/01/21 07:04:23;;;;;;;;;90.33;61.00;;;;;-6.33;100.00;101237.09;6269452;20;3674287;-51
2024/01/21 07:06:53;;;;;;;;;84.33;61.33;;;;;-5.80;100.00;101240.44;6308303;20;2910844;-50
2024/01/21 07:09:24;;;;;;;;;89.33;64.67;;;;;-3.69;94.34;101238.81;6306938;20;3661791;-50
2024/01/21 07:11:53;;;;;;;;;102.33;71.33;;;;;-1.84;83.39;101247.38;6307767;20;3682619;-47
2024/01/21 07:14:23;;;;;;;;;97.67;66.50;;;;;-2.87;81.97;101251.00;6270540;20;3673474;-48
2024/01/21 07:16:53;;;;;;;;;103.33;75.33;;;;;-1.69;79.05;101257.22;6305276;20;3670093;-44
2024/01/21 07:19:23;;;;;;;;;99.67;70.67;;;;;-1.28;75.26;101254.25;6306673;20;3658830;-44
2024/01/21 07:21:52;;;;;;;;;70.50;53.00;;;;;-1.27;77.12;101255.13;6305184;20;2858726;-44
2024/01/21 07:24:21;;;;;;;;;84.20;63.60;;;;;-3.75;85.35;101237.84;6270684;20;3630509;-44
2024/01/21 07:26:51;;;;;;;;;78.67;59.67;;;;;-1.92;85.12;101246.41;6275934;20;2880457;-46
2024/01/21 07:29:20;;;;;;;;;71.67;49.67;;;;;-1.60;79.68;101260.00;6305078;20;2889847;-46
2024/01/21 07:31:50;;;;;;;;;77.33;57.33;;;;;-3.49;89.39;101244.50;6307597;20;2898411;-47
2024/01/21 07:34:20;;;;;;;;;75.00;57.00;;;;;-3.05;92.21;101245.38;6304538;20;2886725;-44
2024/01/21 07:36:49;;;;;;;;;89.33;68.33;;;;;-3.15;93.37;101252.19;6304838;20;2890894;-43
2024/01/21 07:39:18;;;;;;;;;84.50;62.50;;;;;-2.78;94.08;101259.91;6305238;20;2880456;-44
2024/01/21 07:41:47;;;;;;;;;88.50;67.50;;;;;-2.69;91.44;101262.66;6274447;20;2889886;-46
2024/01/21 07:44:16;;;;;;;;;60.50;49.00;;;;;-3.09;92.98;101264.56;6272059;20;2881564;-45
2024/01/21 07:46:46;;;;;;;;;118.00;101.67;;;;;-4.05;95.37;101268.66;6272584;20;3699197;-46
2024/01/21 07:49:14;;;;;;;;;78.50;63.50;;;;;-3.82;94.88;101270.06;6271679;20;2502381;-44
2024/01/21 07:51:44;;;;;;;;;75.33;52.67;;;;;-3.10;94.50;101270.69;6272891;20;3656531;-44
2024/01/21 07:54:13;;;;;;;;;83.00;58.00;;;;;-2.68;92.83;101277.59;6303732;20;2900320;-46
2024/01/21 07:56:41;;;;;;;;;65.50;48.00;;;;;-1.96;87.76;101275.28;6271066;20;2508750;-44
2024/01/21 07:59:12;;;;;;;;;65.33;48.33;;;;;-1.85;86.73;101274.56;6274604;20;3649223;-45
2024/01/21 08:01:41;;;;;;;;;90.33;68.33;;;;;-1.84;87.47;101275.47;6304394;20;3656631;-44
2024/01/21 08:04:11;;;;;;;;;101.33;71.33;;;;;-1.78;85.69;101268.53;6302296;20;3679698;-44
2024/01/21 08:06:41;;;;;;;;;87.33;66.33;;;;;-1.78;85.00;101280.81;6307765;20;3646176;-45
2024/01/21 08:09:11;;;;;;;;;93.67;70.00;;;;;-1.68;85.91;101264.28;6299204;20;2895207;-45
2024/01/21 08:11:41;;;;;;;;;90.00;63.00;;;;;-1.57;85.03;101273.19;6298080;20;2896115;-46
2024/01/21 08:14:11;;;;;;;;;84.33;63.33;;;;;-1.65;84.20;101276.59;6293393;20;3642921;-43
2024/01/21 08:16:39;;;;;;;;;83.00;66.00;;;;;-2.50;86.85;101274.38;6296054;20;2500269;-46
2024/01/21 08:19:09;;;;;;;;;83.33;64.00;;;;;-2.23;90.67;101276.63;6268988;20;2883768;-43
2024/01/21 08:21:37;;;;;;;;;73.50;56.50;;;;;-2.58;93.05;101276.91;6292689;20;2500471;-45
2024/01/21 08:24:05;;;;;;;;;84.50;59.00;;;;;-1.83;88.88;101290.38;6261011;20;2500309;-44
2024/01/21 08:26:34;;;;;;;;;77.50;61.50;;;;;-1.75;90.83;101296.66;6265613;20;2874392;-44
2024/01/21 08:29:03;;;;;;;;;90.67;68.67;;;;;-1.90;93.80;101291.16;6263178;20;3657694;-45
2024/01/21 08:31:31;;;;;;;;;79.50;62.00;;;;;-1.49;91.82;101298.78;6289352;20;2500399;-44
2024/01/21 08:34:00;;;;;;;;;83.00;62.50;;;;;-0.33;85.47;101304.47;6259266;20;2885744;-45
2024/01/21 08:36:29;;;;;;;;;66.00;50.50;;;;;-0.41;83.22;101307.03;6262725;20;2873224;-45
2024/01/21 08:38:58;;;;;;;;;75.50;58.50;;;;;-0.39;82.60;101304.41;6261923;20;2866933;-47
2024/01/21 08:41:27;;;;;;;;;70.50;51.50;;;;;-0.44;82.17;101301.72;6261755;20;2875363;-45
2024/01/21 08:43:56;;;;;;;;;69.00;47.33;;;;;-0.48;82.43;101321.91;6263257;20;2899041;-44
2024/01/21 08:46:25;;;;;;;;;73.00;55.00;;;;;-0.38;82.88;101327.28;6294102;20;2868028;-50
2024/01/21 08:48:55;;;;;;;;;85.67;66.33;;;;;-0.55;87.35;101329.78;6259487;20;2895359;-44
2024/01/21 08:51:25;;;;;;;;;74.67;55.00;;;;;-1.20;87.53;101323.75;6295690;20;2877667;-44
2024/01/21 08:53:57;;;;;;;;;81.50;65.00;;;;;-0.57;89.55;101321.81;6291735;20;2876436;-45
2024/01/21 08:56:27;;;;;;;;;73.50;56.50;;;;;-1.23;98.19;101315.81;6264265;20;2881662;-44
2024/01/21 08:58:55;;;;;;;;;70.00;58.00;;;;;-1.46;97.83;101325.16;6261855;20;2500305;-45
2024/01/21 09:01:23;;;;;;;;;73.00;56.00;;;;;-1.60;99.08;101328.47;6257917;20;2500317;-44
2024/01/21 09:03:53;;;;;;;;;76.67;51.67;;;;;-0.63;100.00;101331.41;6261777;20;2899290;-46
2024/01/21 09:06:22;;;;;;;;;75.50;52.50;;;;;-1.46;100.00;101333.03;6292940;20;2886742;-45
2024/01/21 09:08:53;;;;;;;;;66.50;50.50;;;;;-1.43;98.52;101325.19;6263778;20;2874804;-46
2024/01/21 09:11:25;;;;;;;;;86.33;67.67;;;;;-1.01;98.27;101339.78;6265397;20;2886770;-46
2024/01/21 09:13:55;;;;;;;;;109.67;83.33;;;;;-1.00;96.70;101338.91;6297027;20;3685807;-43
2024/01/21 09:16:25;;;;;;;;;90.00;67.00;;;;;-0.35;94.67;101349.31;6260448;20;3658624;-45
2024/01/21 09:18:54;;;;;;;;;112.00;89.67;;;;;-1.07;94.84;101348.50;6296697;20;3687770;-47
2024/01/21 09:21:24;;;;;;;;;93.33;72.00;;;;;-0.50;92.16;101354.41;6265501;20;3654471;-46
2024/01/21 09:24:04;;;;;;;;;80.67;62.00;;;;;-0.42;93.20;101352.78;6297877;20;2878494;-47
2024/01/21 09:26:34;;;;;;;;;71.00;54.50;;;;;-1.74;94.73;101351.06;6295268;20;2868094;-45
2024/01/21 09:29:03;;;;;;;;;68.50;49.50;;;;;-1.23;96.52;101344.78;6270727;20;2862881;-44
2024/01/21 09:31:35;;;;;;;;;92.00;68.67;;;;;0.03;89.23;101351.44;6268911;20;2901808;-45
2024/01/21 09:34:03;;;;;;;;;71.00;55.00;;;;;-0.48;90.80;101342.13;6290917;20;2478516;-46
2024/01/21 09:36:34;;;;;;;;;68.00;52.00;;;;;-0.92;92.33;101347.81;6268682;20;2885800;-48
2024/01/21 09:39:04;;;;;;;;;68.50;51.50;;;;;-1.32;94.51;101347.28;6271807;20;2855559;-44
2024/01/21 09:41:51;;;;;;;;;102.67;81.00;;;;;-0.98;93.96;101345.09;6270608;20;3671266;-46
2024/01/21 09:44:28;;;;;;;;;90.33;65.00;;;;;-0.92;92.67;101342.53;6301169;20;3657648;-44
2024/01/21 09:47:00;;;;;;;;;71.00;56.00;;;;;-1.58;96.71;101336.38;6301472;20;2858646;-46
2024/01/21 09:49:31;;;;;;;;;70.00;54.50;;;;;-0.49;94.27;101343.91;6268098;20;2500379;-44
2024/01/21 09:52:02;;;;;;;;;84.33;59.67;;;;;-0.67;93.06;101341.06;6268421;20;2899340;-46
2024/01/21 09:54:31;;;;;;;;;71.00;53.50;;;;;-0.04;91.23;101350.47;6299068;20;2871120;-45
2024/01/21 09:57:00;;;;;;;;;69.00;54.00;;;;;0.49;87.39;101346.47;6265751;20;2500508;-47
2024/01/21 09:59:28;;;;;;;;;69.50;54.00;;;;;-0.63;91.26;101349.88;6269159;20;2500288;-45
2024/01/21 10:01:56;;;;;;;;;74.00;56.00;;;;;-0.11;90.64;101343.34;6265083;20;2500451;-46
2024/01/21 10:04:26;;;;;;;;;72.00;55.00;;;;;-0.38;90.62;101344.00;6266372;20;2879470;-46
2024/01/21 10:06:58;;;;;;;;;69.50;51.50;;;;;0.18;90.88;101351.53;6268767;20;2883651;-45
2024/01/21 10:09:27;;;;;;;;;58.00;44.50;;;;;-0.35;92.33;101348.41;6270634;20;2858633;-45
2024/01/21 10:11:57;;;;;;;;;71.00;55.00;;;;;-0.18;92.79;101352.13;6266395;20;2500802;-51
2024/01/21 10:14:27;;;;;;;;;52.00;29.50;;;;;0.03;90.25;101359.34;6267986;20;2891944;-46
2024/01/21 10:17:00;;;;;;;;;64.33;46.00;;;;;-0.32;91.72;101354.59;6268751;20;3647123;-45
2024/01/21 10:19:33;;;;;;;;;74.50;58.00;;;;;0.97;88.23;101354.66;6296480;20;2883732;-45
2024/01/21 10:22:13;;;;;;;;;68.00;53.50;;;;;0.56;91.34;101350.03;6271704;20;2868079;-45
2024/01/21 10:24:48;;;;;;;;;65.50;51.00;;;;;0.49;89.20;101349.09;6271102;20;2854447;-46
2024/01/21 10:27:17;;;;;;;;;67.50;49.50;;;;;0.16;89.42;101350.66;6266680;20;2490175;-45
2024/01/21 10:29:47;;;;;;;;;67.50;52.50;;;;;0.38;89.79;101362.25;6270911;20;2865102;-46
2024/01/21 10:32:18;;;;;;;;;73.50;55.50;;;;;0.49;90.10;101361.44;6273135;20;2889063;-45
2024/01/21 10:34:52;;;;;;;;;70.00;54.00;;;;;0.38;93.44;101370.16;6268770;20;2879573;-45
2024/01/21 10:37:20;;;;;;;;;67.00;50.00;;;;;0.03;91.82;101363.72;6266221;20;2500537;-47
2024/01/21 10:39:49;;;;;;;;;62.50;53.50;;;;;0.41;93.12;101371.94;6263253;20;2500392;-45
2024/01/21 10:42:20;;;;;;;;;71.00;52.33;;;;;0.02;93.12;101370.75;6271161;20;2881573;-45
2024/01/21 10:44:50;;;;;;;;;76.67;57.00;;;;;0.47;91.32;101384.31;6300439;20;2887776;-45
2024/01/21 10:47:22;;;;;;;;;74.00;54.00;;;;;0.15;93.29;101377.91;6300872;20;2884647;-48
2024/01/21 10:49:51;;;;;;;;;70.33;55.33;;;;;0.01;92.22;101368.13;6269888;20;2880656;-45
2024/01/21 10:52:22;;;;;;;;;79.00;59.00;;;;;-0.44;93.97;101375.59;6303831;20;2875284;-46
2024/01/21 10:54:50;;;;;;;;;69.50;55.50;;;;;-0.23;94.54;101370.53;6269164;20;2500412;-43
2024/01/21 10:57:19;;;;;;;;;80.00;58.50;;;;;0.56;95.78;101369.41;6267432;20;2884801;-43
2024/01/21 10:59:49;;;;;;;;;73.00;54.67;;;;;-0.41;94.46;101367.72;6272387;20;2879480;-47